sensor_id;sensor_type;location;lat;lon;timestamp;P1;durP1;ratioP1;P2;durP2;ratioP2
82147;SDS011;71718;50.480;12.110;2024-01-30T00:00:18;5.65;;;3.42;;
82147;SDS011;71718;50.480;12.110;2024-01-30T00:02:45;5.32;;;4.53;;
82147;SDS011;71718;50.480;12.110;2024-01-30T00:05:11;5.63;;;4.13;;
82147;SDS011;71718;50.480;12.110;2024-01-30T00:07:38;12.18;;;4.15;;
82147;SDS011;71718;50.480;12.110;2024-01-30T00:10:04;4.47;;;3.35;;
82147;SDS011;71718;50.480;12.110;2024-01-30T00:12:31;4.00;;;3.60;;
82147;SDS011;71718;50.480;12.110;2024-01-30T00:14:57;4.05;;;3.65;;
82147;SDS011;71718;50.480;12.110;2024-01-30T00:17:24;4.45;;;3.13;;
82147;SDS011;71718;50.480;12.110;2024-01-30T00:19:50;3.85;;;3.55;;
82147;SDS011;71718;50.480;12.110;2024-01-30T00:22:17;5.40;;;3.22;;
82147;SDS011;71718;50.480;12.110;2024-01-30T00:24:43;4.53;;;3.28;;
82147;SDS011;71718;50.480;12.110;2024-01-30T00:27:10;3.60;;;3.03;;
82147;SDS011;71718;50.480;12.110;2024-01-30T00:29:36;3.30;;;3.00;;
82147;SDS011;71718;50.480;12.110;2024-01-30T00:32:03;3.72;;;2.92;;
82147;SDS011;71718;50.480;12.110;2024-01-30T00:34:29;3.63;;;2.88;;
82147;SDS011;71718;50.480;12.110;2024-01-30T00:36:56;5.13;;;2.90;;
82147;SDS011;71718;50.480;12.110;2024-01-30T00:39:22;3.83;;;2.55;;
82147;SDS011;71718;50.480;12.110;2024-01-30T00:41:48;2.28;;;2.08;;
82147;SDS011;71718;50.480;12.110;2024-01-30T00:44:15;4.60;;;3.30;;
82147;SDS011;71718;50.480;12.110;2024-01-30T00:46:41;3.63;;;3.33;;
82147;SDS011;71718;50.480;12.110;2024-01-30T00:49:08;4.07;;;3.15;;
82147;SDS011;71718;50.480;12.110;2024-01-30T00:51:34;3.63;;;2.88;;
82147;SDS011;71718;50.480;12.110;2024-01-30T00:54:00;8.05;;;3.08;;
82147;SDS011;71718;50.480;12.110;2024-01-30T00:56:27;11.65;;;5.07;;
82147;SDS011;71718;50.480;12.110;2024-01-30T00:58:53;6.15;;;4.32;;
82147;SDS011;71718;50.480;12.110;2024-01-30T01:01:20;5.72;;;2.55;;
82147;SDS011;71718;50.480;12.110;2024-01-30T01:03:46;2.55;;;2.33;;
82147;SDS011;71718;50.480;12.110;2024-01-30T01:06:13;6.35;;;3.33;;
82147;SDS011;71718;50.480;12.110;2024-01-30T01:08:39;3.90;;;3.08;;
82147;SDS011;71718;50.480;12.110;2024-01-30T01:11:06;2.38;;;2.17;;
82147;SDS011;71718;50.480;12.110;2024-01-30T01:13:32;3.83;;;3.42;;
82147;SDS011;71718;50.480;12.110;2024-01-30T01:15:59;5.00;;;3.15;;
82147;SDS011;71718;50.480;12.110;2024-01-30T01:18:25;5.15;;;2.80;;
82147;SDS011;71718;50.480;12.110;2024-01-30T01:20:52;4.68;;;3.47;;
82147;SDS011;71718;50.480;12.110;2024-01-30T01:23:18;8.13;;;4.35;;
82147;SDS011;71718;50.480;12.110;2024-01-30T01:25:44;8.13;;;2.92;;
82147;SDS011;71718;50.480;12.110;2024-01-30T01:28:11;3.65;;;2.70;;
82147;SDS011;71718;50.480;12.110;2024-01-30T01:30:37;3.67;;;3.25;;
82147;SDS011;71718;50.480;12.110;2024-01-30T01:33:04;9.35;;;3.90;;
82147;SDS011;71718;50.480;12.110;2024-01-30T01:35:30;5.80;;;4.25;;
82147;SDS011;71718;50.480;12.110;2024-01-30T01:37:57;2.75;;;2.53;;
82147;SDS011;71718;50.480;12.110;2024-01-30T01:40:24;3.20;;;2.85;;
82147;SDS011;71718;50.480;12.110;2024-01-30T01:42:52;2.45;;;2.25;;
82147;SDS011;71718;50.480;12.110;2024-01-30T01:45:20;3.20;;;2.78;;
82147;SDS011;71718;50.480;12.110;2024-01-30T01:47:47;3.67;;;3.42;;
82147;SDS011;71718;50.480;12.110;2024-01-30T01:50:17;3.90;;;3.10;;
82147;SDS011;71718;50.480;12.110;2024-01-30T01:52:46;5.53;;;3.03;;
82147;SDS011;71718;50.480;12.110;2024-01-30T01:55:14;4.00;;;3.60;;
82147;SDS011;71718;50.480;12.110;2024-01-30T01:57:41;3.42;;;2.50;;
82147;SDS011;71718;50.480;12.110;2024-01-30T02:00:08;3.45;;;3.15;;
82147;SDS011;71718;50.480;12.110;2024-01-30T02:02:36;7.47;;;4.22;;
82147;SDS011;71718;50.480;12.110;2024-01-30T02:05:03;5.60;;;2.90;;
82147;SDS011;71718;50.480;12.110;2024-01-30T02:07:29;6.50;;;4.18;;
82147;SDS011;71718;50.480;12.110;2024-01-30T02:09:56;12.30;;;3.08;;
82147;SDS011;71718;50.480;12.110;2024-01-30T02:12:22;4.95;;;3.15;;
82147;SDS011;71718;50.480;12.110;2024-01-30T02:14:50;8.00;;;3.78;;
82147;SDS011;71718;50.480;12.110;2024-01-30T02:17:16;9.73;;;3.47;;
82147;SDS011;71718;50.480;12.110;2024-01-30T02:19:43;3.00;;;2.80;;
82147;SDS011;71718;50.480;12.110;2024-01-30T02:22:09;3.67;;;3.00;;
82147;SDS011;71718;50.480;12.110;2024-01-30T02:24:36;2.78;;;2.58;;
82147;SDS011;71718;50.480;12.110;2024-01-30T02:27:02;3.65;;;3.35;;
82147;SDS011;71718;50.480;12.110;2024-01-30T02:29:29;6.32;;;3.67;;
82147;SDS011;71718;50.480;12.110;2024-01-30T02:31:55;6.13;;;3.75;;
82147;SDS011;71718;50.480;12.110;2024-01-30T02:34:22;3.75;;;3.45;;
82147;SDS011;71718;50.480;12.110;2024-01-30T02:36:48;3.38;;;2.92;;
82147;SDS011;71718;50.480;12.110;2024-01-30T02:39:15;5.00;;;3.90;;
82147;SDS011;71718;50.480;12.110;2024-01-30T02:41:41;2.72;;;2.25;;
82147;SDS011;71718;50.480;12.110;2024-01-30T02:44:07;2.03;;;1.92;;
82147;SDS011;71718;50.480;12.110;2024-01-30T02:46:34;4.05;;;2.85;;
82147;SDS011;71718;50.480;12.110;2024-01-30T02:49:00;2.78;;;2.58;;
82147;SDS011;71718;50.480;12.110;2024-01-30T02:51:27;5.03;;;2.95;;
82147;SDS011;71718;50.480;12.110;2024-01-30T02:53:53;5.63;;;3.55;;
82147;SDS011;71718;50.480;12.110;2024-01-30T02:56:19;2.95;;;2.53;;
82147;SDS011;71718;50.480;12.110;2024-01-30T02:58:46;4.40;;;3.40;;
82147;SDS011;71718;50.480;12.110;2024-01-30T03:01:12;2.85;;;2.65;;
82147;SDS011;71718;50.480;12.110;2024-01-30T03:03:38;4.88;;;2.78;;
82147;SDS011;71718;50.480;12.110;2024-01-30T03:06:05;2.63;;;2.42;;
82147;SDS011;71718;50.480;12.110;2024-01-30T03:08:31;4.07;;;1.90;;
82147;SDS011;71718;50.480;12.110;2024-01-30T03:10:58;3.90;;;3.17;;
82147;SDS011;71718;50.480;12.110;2024-01-30T03:13:24;4.45;;;2.67;;
82147;SDS011;71718;50.480;12.110;2024-01-30T03:15:51;2.47;;;2.28;;
82147;SDS011;71718;50.480;12.110;2024-01-30T03:18:17;3.50;;;1.77;;
82147;SDS011;71718;50.480;12.110;2024-01-30T03:20:44;3.05;;;2.38;;
82147;SDS011;71718;50.480;12.110;2024-01-30T03:23:10;4.50;;;2.72;;
82147;SDS011;71718;50.480;12.110;2024-01-30T03:25:36;5.22;;;3.22;;
82147;SDS011;71718;50.480;12.110;2024-01-30T03:28:03;4.72;;;3.22;;
82147;SDS011;71718;50.480;12.110;2024-01-30T03:30:29;3.63;;;3.33;;
82147;SDS011;71718;50.480;12.110;2024-01-30T03:32:56;2.35;;;2.25;;
82147;SDS011;71718;50.480;12.110;2024-01-30T03:35:22;3.15;;;2.50;;
82147;SDS011;71718;50.480;12.110;2024-01-30T03:37:49;4.30;;;3.42;;
82147;SDS011;71718;50.480;12.110;2024-01-30T03:40:15;2.47;;;2.38;;
82147;SDS011;71718;50.480;12.110;2024-01-30T03:42:42;4.10;;;3.28;;
82147;SDS011;71718;50.480;12.110;2024-01-30T03:45:08;3.47;;;3.13;;
82147;SDS011;71718;50.480;12.110;2024-01-30T03:47:35;5.38;;;3.08;;
82147;SDS011;71718;50.480;12.110;2024-01-30T03:50:01;2.88;;;2.67;;
82147;SDS011;71718;50.480;12.110;2024-01-30T03:52:27;6.20;;;3.20;;
82147;SDS011;71718;50.480;12.110;2024-01-30T03:54:54;6.20;;;3.83;;
82147;SDS011;71718;50.480;12.110;2024-01-30T03:57:20;3.05;;;2.63;;
82147;SDS011;71718;50.480;12.110;2024-01-30T03:59:47;2.65;;;2.45;;
82147;SDS011;71718;50.480;12.110;2024-01-30T04:02:13;2.78;;;2.40;;
82147;SDS011;71718;50.480;12.110;2024-01-30T04:04:40;3.00;;;2.45;;
82147;SDS011;71718;50.480;12.110;2024-01-30T04:07:06;3.45;;;3.05;;
82147;SDS011;71718;50.480;12.110;2024-01-30T04:09:33;23.48;;;3.10;;
82147;SDS011;71718;50.480;12.110;2024-01-30T04:11:59;6.10;;;2.80;;
82147;SDS011;71718;50.480;12.110;2024-01-30T04:14:25;2.50;;;2.30;;
82147;SDS011;71718;50.480;12.110;2024-01-30T04:16:52;3.92;;;3.28;;
82147;SDS011;71718;50.480;12.110;2024-01-30T04:19:18;3.25;;;2.95;;
82147;SDS011;71718;50.480;12.110;2024-01-30T04:21:45;2.97;;;2.53;;
82147;SDS011;71718;50.480;12.110;2024-01-30T04:24:11;5.15;;;2.90;;
82147;SDS011;71718;50.480;12.110;2024-01-30T04:26:38;2.28;;;2.10;;
82147;SDS011;71718;50.480;12.110;2024-01-30T04:29:04;3.70;;;2.63;;
82147;SDS011;71718;50.480;12.110;2024-01-30T04:31:30;3.45;;;3.15;;
82147;SDS011;71718;50.480;12.110;2024-01-30T04:33:57;3.70;;;3.38;;
82147;SDS011;71718;50.480;12.110;2024-01-30T04:36:23;4.45;;;2.88;;
82147;SDS011;71718;50.480;12.110;2024-01-30T04:38:50;4.13;;;2.67;;
82147;SDS011;71718;50.480;12.110;2024-01-30T04:41:16;5.75;;;3.00;;
82147;SDS011;71718;50.480;12.110;2024-01-30T04:43:42;4.07;;;2.78;;
82147;SDS011;71718;50.480;12.110;2024-01-30T04:46:09;3.15;;;2.85;;
82147;SDS011;71718;50.480;12.110;2024-01-30T04:48:35;4.70;;;2.97;;
82147;SDS011;71718;50.480;12.110;2024-01-30T04:51:02;2.60;;;2.40;;
82147;SDS011;71718;50.480;12.110;2024-01-30T04:53:29;4.47;;;3.40;;
82147;SDS011;71718;50.480;12.110;2024-01-30T04:55:56;6.43;;;4.30;;
82147;SDS011;71718;50.480;12.110;2024-01-30T04:58:23;22.45;;;3.10;;
82147;SDS011;71718;50.480;12.110;2024-01-30T05:00:49;3.85;;;3.25;;
82147;SDS011;71718;50.480;12.110;2024-01-30T05:03:16;4.10;;;2.92;;
82147;SDS011;71718;50.480;12.110;2024-01-30T05:05:42;6.35;;;3.42;;
82147;SDS011;71718;50.480;12.110;2024-01-30T05:08:09;3.83;;;3.42;;
82147;SDS011;71718;50.480;12.110;2024-01-30T05:10:35;2.42;;;2.28;;
82147;SDS011;71718;50.480;12.110;2024-01-30T05:13:01;4.05;;;3.35;;
82147;SDS011;71718;50.480;12.110;2024-01-30T05:15:28;6.05;;;3.03;;
82147;SDS011;71718;50.480;12.110;2024-01-30T05:17:54;7.28;;;4.70;;
82147;SDS011;71718;50.480;12.110;2024-01-30T05:20:21;17.67;;;3.80;;
82147;SDS011;71718;50.480;12.110;2024-01-30T05:22:47;11.85;;;4.93;;
82147;SDS011;71718;50.480;12.110;2024-01-30T05:25:14;5.65;;;2.22;;
82147;SDS011;71718;50.480;12.110;2024-01-30T05:27:40;5.18;;;2.75;;
82147;SDS011;71718;50.480;12.110;2024-01-30T05:30:07;7.28;;;3.38;;
82147;SDS011;71718;50.480;12.110;2024-01-30T05:32:33;3.13;;;2.65;;
82147;SDS011;71718;50.480;12.110;2024-01-30T05:35:00;4.95;;;3.75;;
82147;SDS011;71718;50.480;12.110;2024-01-30T05:37:26;5.10;;;2.70;;
82147;SDS011;71718;50.480;12.110;2024-01-30T05:39:53;8.65;;;3.05;;
82147;SDS011;71718;50.480;12.110;2024-01-30T05:42:19;4.97;;;3.63;;
82147;SDS011;71718;50.480;12.110;2024-01-30T05:44:46;4.00;;;3.47;;
82147;SDS011;71718;50.480;12.110;2024-01-30T05:47:12;13.85;;;4.82;;
82147;SDS011;71718;50.480;12.110;2024-01-30T05:49:38;7.60;;;4.95;;
82147;SDS011;71718;50.480;12.110;2024-01-30T05:52:05;5.15;;;3.13;;
82147;SDS011;71718;50.480;12.110;2024-01-30T05:54:31;5.68;;;3.00;;
82147;SDS011;71718;50.480;12.110;2024-01-30T05:56:58;3.33;;;3.00;;
82147;SDS011;71718;50.480;12.110;2024-01-30T05:59:24;3.45;;;3.20;;
82147;SDS011;71718;50.480;12.110;2024-01-30T06:01:51;2.67;;;2.45;;
82147;SDS011;71718;50.480;12.110;2024-01-30T06:04:18;4.10;;;2.85;;
82147;SDS011;71718;50.480;12.110;2024-01-30T06:06:44;7.72;;;2.90;;
82147;SDS011;71718;50.480;12.110;2024-01-30T06:09:11;9.05;;;3.15;;
82147;SDS011;71718;50.480;12.110;2024-01-30T06:11:37;3.42;;;2.83;;
82147;SDS011;71718;50.480;12.110;2024-01-30T06:14:04;1.95;;;1.83;;
82147;SDS011;71718;50.480;12.110;2024-01-30T06:16:30;7.07;;;3.90;;
82147;SDS011;71718;50.480;12.110;2024-01-30T06:18:56;8.18;;;4.28;;
82147;SDS011;71718;50.480;12.110;2024-01-30T06:21:23;3.17;;;2.65;;
82147;SDS011;71718;50.480;12.110;2024-01-30T06:23:50;5.95;;;3.05;;
82147;SDS011;71718;50.480;12.110;2024-01-30T06:26:16;5.20;;;3.25;;
82147;SDS011;71718;50.480;12.110;2024-01-30T06:28:42;4.82;;;3.35;;
82147;SDS011;71718;50.480;12.110;2024-01-30T06:31:09;4.55;;;3.20;;
82147;SDS011;71718;50.480;12.110;2024-01-30T06:33:35;4.80;;;3.15;;
82147;SDS011;71718;50.480;12.110;2024-01-30T06:36:02;4.35;;;2.60;;
82147;SDS011;71718;50.480;12.110;2024-01-30T06:38:28;4.32;;;3.17;;
82147;SDS011;71718;50.480;12.110;2024-01-30T06:40:55;5.78;;;3.10;;
82147;SDS011;71718;50.480;12.110;2024-01-30T06:43:22;4.82;;;3.33;;
82147;SDS011;71718;50.480;12.110;2024-01-30T06:45:48;5.03;;;4.40;;
82147;SDS011;71718;50.480;12.110;2024-01-30T06:48:14;2.92;;;2.63;;
82147;SDS011;71718;50.480;12.110;2024-01-30T06:50:41;10.27;;;3.40;;
82147;SDS011;71718;50.480;12.110;2024-01-30T06:53:07;4.82;;;2.60;;
82147;SDS011;71718;50.480;12.110;2024-01-30T06:55:34;6.40;;;2.88;;
82147;SDS011;71718;50.480;12.110;2024-01-30T06:58:00;3.58;;;2.97;;
82147;SDS011;71718;50.480;12.110;2024-01-30T07:00:26;5.97;;;3.20;;
82147;SDS011;71718;50.480;12.110;2024-01-30T07:02:53;8.00;;;3.63;;
82147;SDS011;71718;50.480;12.110;2024-01-30T07:05:19;5.93;;;4.32;;
82147;SDS011;71718;50.480;12.110;2024-01-30T07:07:46;4.15;;;3.75;;
82147;SDS011;71718;50.480;12.110;2024-01-30T07:10:12;2.75;;;2.50;;
82147;SDS011;71718;50.480;12.110;2024-01-30T07:12:39;3.17;;;2.88;;
82147;SDS011;71718;50.480;12.110;2024-01-30T07:15:06;7.38;;;3.88;;
82147;SDS011;71718;50.480;12.110;2024-01-30T07:17:32;4.10;;;3.63;;
82147;SDS011;71718;50.480;12.110;2024-01-30T07:19:59;4.60;;;2.35;;
82147;SDS011;71718;50.480;12.110;2024-01-30T07:22:25;2.20;;;2.08;;
82147;SDS011;71718;50.480;12.110;2024-01-30T07:24:52;2.90;;;2.70;;
82147;SDS011;71718;50.480;12.110;2024-01-30T07:27:19;5.93;;;3.13;;
82147;SDS011;71718;50.480;12.110;2024-01-30T07:29:45;4.53;;;3.10;;
82147;SDS011;71718;50.480;12.110;2024-01-30T07:32:11;2.95;;;2.75;;
82147;SDS011;71718;50.480;12.110;2024-01-30T07:34:38;3.33;;;3.05;;
82147;SDS011;71718;50.480;12.110;2024-01-30T07:37:18;4.03;;;3.72;;
82147;SDS011;71718;50.480;12.110;2024-01-30T07:39:45;7.85;;;3.97;;
82147;SDS011;71718;50.480;12.110;2024-01-30T07:42:11;2.75;;;2.50;;
82147;SDS011;71718;50.480;12.110;2024-01-30T07:44:37;4.18;;;3.22;;
82147;SDS011;71718;50.480;12.110;2024-01-30T07:47:04;5.03;;;3.88;;
82147;SDS011;71718;50.480;12.110;2024-01-30T07:49:31;7.05;;;4.32;;
82147;SDS011;71718;50.480;12.110;2024-01-30T07:51:57;11.52;;;4.20;;
82147;SDS011;71718;50.480;12.110;2024-01-30T07:54:24;5.63;;;3.97;;
82147;SDS011;71718;50.480;12.110;2024-01-30T07:56:50;4.18;;;3.58;;
82147;SDS011;71718;50.480;12.110;2024-01-30T07:59:17;7.75;;;5.35;;
82147;SDS011;71718;50.480;12.110;2024-01-30T08:01:43;3.22;;;2.90;;
82147;SDS011;71718;50.480;12.110;2024-01-30T08:04:10;8.05;;;4.78;;
82147;SDS011;71718;50.480;12.110;2024-01-30T08:06:36;4.93;;;3.35;;
82147;SDS011;71718;50.480;12.110;2024-01-30T08:09:05;3.60;;;3.30;;
82147;SDS011;71718;50.480;12.110;2024-01-30T08:11:31;6.88;;;4.28;;
82147;SDS011;71718;50.480;12.110;2024-01-30T08:13:58;5.47;;;4.47;;
82147;SDS011;71718;50.480;12.110;2024-01-30T08:16:24;5.35;;;3.55;;
82147;SDS011;71718;50.480;12.110;2024-01-30T08:18:50;6.60;;;4.38;;
82147;SDS011;71718;50.480;12.110;2024-01-30T08:21:17;6.05;;;3.90;;
82147;SDS011;71718;50.480;12.110;2024-01-30T08:23:43;4.53;;;3.08;;
82147;SDS011;71718;50.480;12.110;2024-01-30T08:26:10;9.63;;;3.70;;
82147;SDS011;71718;50.480;12.110;2024-01-30T08:28:36;5.60;;;4.47;;
82147;SDS011;71718;50.480;12.110;2024-01-30T08:31:03;4.38;;;3.83;;
82147;SDS011;71718;50.480;12.110;2024-01-30T08:33:29;3.45;;;3.15;;
82147;SDS011;71718;50.480;12.110;2024-01-30T08:35:56;4.80;;;4.00;;
82147;SDS011;71718;50.480;12.110;2024-01-30T08:38:22;5.22;;;4.53;;
82147;SDS011;71718;50.480;12.110;2024-01-30T08:40:49;6.07;;;4.03;;
82147;SDS011;71718;50.480;12.110;2024-01-30T08:43:15;4.45;;;3.63;;
82147;SDS011;71718;50.480;12.110;2024-01-30T08:45:42;12.18;;;5.07;;
82147;SDS011;71718;50.480;12.110;2024-01-30T08:48:08;4.75;;;4.28;;
82147;SDS011;71718;50.480;12.110;2024-01-30T08:50:35;6.05;;;4.68;;
82147;SDS011;71718;50.480;12.110;2024-01-30T08:53:01;10.10;;;6.40;;
82147;SDS011;71718;50.480;12.110;2024-01-30T08:55:28;4.57;;;4.13;;
82147;SDS011;71718;50.480;12.110;2024-01-30T08:57:54;7.93;;;3.53;;
82147;SDS011;71718;50.480;12.110;2024-01-30T09:00:21;6.72;;;4.25;;
82147;SDS011;71718;50.480;12.110;2024-01-30T09:02:47;8.43;;;4.13;;
82147;SDS011;71718;50.480;12.110;2024-01-30T09:05:14;4.07;;;3.47;;
82147;SDS011;71718;50.480;12.110;2024-01-30T09:07:40;8.18;;;5.13;;
82147;SDS011;71718;50.480;12.110;2024-01-30T09:10:07;3.92;;;3.58;;
82147;SDS011;71718;50.480;12.110;2024-01-30T09:12:39;6.38;;;4.25;;
82147;SDS011;71718;50.480;12.110;2024-01-30T09:15:05;5.63;;;4.70;;
82147;SDS011;71718;50.480;12.110;2024-01-30T09:17:32;5.78;;;3.75;;
82147;SDS011;71718;50.480;12.110;2024-01-30T09:19:58;5.68;;;4.07;;
82147;SDS011;71718;50.480;12.110;2024-01-30T09:22:25;6.35;;;3.47;;
82147;SDS011;71718;50.480;12.110;2024-01-30T09:24:52;5.15;;;3.60;;
82147;SDS011;71718;50.480;12.110;2024-01-30T09:27:18;3.65;;;3.35;;
82147;SDS011;71718;50.480;12.110;2024-01-30T09:29:45;5.88;;;4.80;;
82147;SDS011;71718;50.480;12.110;2024-01-30T09:32:11;7.85;;;4.10;;
82147;SDS011;71718;50.480;12.110;2024-01-30T09:34:37;5.40;;;4.72;;
82147;SDS011;71718;50.480;12.110;2024-01-30T09:37:04;9.13;;;4.82;;
82147;SDS011;71718;50.480;12.110;2024-01-30T09:39:30;4.43;;;4.07;;
82147;SDS011;71718;50.480;12.110;2024-01-30T09:42:39;5.85;;;4.72;;
82147;SDS011;71718;50.480;12.110;2024-01-30T09:44:54;5.07;;;3.85;;
82147;SDS011;71718;50.480;12.110;2024-01-30T09:47:21;8.20;;;5.65;;
82147;SDS011;71718;50.480;12.110;2024-01-30T09:49:47;6.95;;;5.05;;
82147;SDS011;71718;50.480;12.110;2024-01-30T09:52:14;5.68;;;4.72;;
82147;SDS011;71718;50.480;12.110;2024-01-30T09:54:41;4.40;;;4.10;;
82147;SDS011;71718;50.480;12.110;2024-01-30T09:57:08;7.72;;;5.68;;
82147;SDS011;71718;50.480;12.110;2024-01-30T09:59:34;7.95;;;4.95;;
82147;SDS011;71718;50.480;12.110;2024-01-30T10:02:01;4.78;;;4.38;;
82147;SDS011;71718;50.480;12.110;2024-01-30T10:04:27;6.47;;;4.18;;
82147;SDS011;71718;50.480;12.110;2024-01-30T10:06:54;5.07;;;4.65;;
82147;SDS011;71718;50.480;12.110;2024-01-30T10:09:21;7.40;;;4.60;;
82147;SDS011;71718;50.480;12.110;2024-01-30T10:11:48;5.40;;;4.30;;
82147;SDS011;71718;50.480;12.110;2024-01-30T10:14:15;6.40;;;4.90;;
82147;SDS011;71718;50.480;12.110;2024-01-30T10:16:42;4.95;;;4.45;;
82147;SDS011;71718;50.480;12.110;2024-01-30T10:19:08;18.63;;;5.32;;
82147;SDS011;71718;50.480;12.110;2024-01-30T10:21:34;8.70;;;4.65;;
82147;SDS011;71718;50.480;12.110;2024-01-30T10:24:01;14.27;;;5.85;;
82147;SDS011;71718;50.480;12.110;2024-01-30T10:26:27;7.38;;;4.22;;
82147;SDS011;71718;50.480;12.110;2024-01-30T10:28:54;14.30;;;6.70;;
82147;SDS011;71718;50.480;12.110;2024-01-30T10:31:20;6.38;;;4.50;;
82147;SDS011;71718;50.480;12.110;2024-01-30T10:33:46;7.72;;;5.80;;
82147;SDS011;71718;50.480;12.110;2024-01-30T10:36:14;9.50;;;5.35;;
82147;SDS011;71718;50.480;12.110;2024-01-30T10:38:43;6.25;;;3.92;;
82147;SDS011;71718;50.480;12.110;2024-01-30T10:41:11;7.22;;;5.43;;
82147;SDS011;71718;50.480;12.110;2024-01-30T10:43:40;4.25;;;3.85;;
82147;SDS011;71718;50.480;12.110;2024-01-30T10:46:15;4.57;;;4.18;;
82147;SDS011;71718;50.480;12.110;2024-01-30T10:48:46;12.48;;;4.57;;
82147;SDS011;71718;50.480;12.110;2024-01-30T10:51:18;10.15;;;5.03;;
82147;SDS011;71718;50.480;12.110;2024-01-30T10:53:46;13.40;;;5.60;;
82147;SDS011;71718;50.480;12.110;2024-01-30T10:56:12;16.52;;;7.63;;
82147;SDS011;71718;50.480;12.110;2024-01-30T10:58:39;6.03;;;4.90;;
82147;SDS011;71718;50.480;12.110;2024-01-30T11:01:06;13.27;;;5.15;;
82147;SDS011;71718;50.480;12.110;2024-01-30T11:03:34;7.20;;;5.18;;
82147;SDS011;71718;50.480;12.110;2024-01-30T11:06:00;12.45;;;3.60;;
82147;SDS011;71718;50.480;12.110;2024-01-30T11:08:27;6.53;;;4.40;;
82147;SDS011;71718;50.480;12.110;2024-01-30T11:10:56;11.70;;;4.78;;
82147;SDS011;71718;50.480;12.110;2024-01-30T11:13:27;5.68;;;5.03;;
82147;SDS011;71718;50.480;12.110;2024-01-30T11:15:55;8.80;;;4.38;;
82147;SDS011;71718;50.480;12.110;2024-01-30T11:18:26;3.85;;;3.47;;
82147;SDS011;71718;50.480;12.110;2024-01-30T11:20:58;6.68;;;4.68;;
82147;SDS011;71718;50.480;12.110;2024-01-30T11:23:25;4.80;;;4.20;;
82147;SDS011;71718;50.480;12.110;2024-01-30T11:25:56;4.93;;;4.53;;
82147;SDS011;71718;50.480;12.110;2024-01-30T11:28:22;8.85;;;6.20;;
82147;SDS011;71718;50.480;12.110;2024-01-30T11:30:49;7.20;;;4.72;;
82147;SDS011;71718;50.480;12.110;2024-01-30T11:33:27;7.85;;;6.07;;
82147;SDS011;71718;50.480;12.110;2024-01-30T11:35:58;6.38;;;5.03;;
82147;SDS011;71718;50.480;12.110;2024-01-30T11:38:25;5.35;;;4.53;;
82147;SDS011;71718;50.480;12.110;2024-01-30T11:40:53;7.55;;;5.40;;
82147;SDS011;71718;50.480;12.110;2024-01-30T11:43:21;6.85;;;4.30;;
82147;SDS011;71718;50.480;12.110;2024-01-30T11:45:47;4.80;;;4.05;;
82147;SDS011;71718;50.480;12.110;2024-01-30T11:48:14;5.28;;;4.20;;
82147;SDS011;71718;50.480;12.110;2024-01-30T11:50:41;8.25;;;6.22;;
82147;SDS011;71718;50.480;12.110;2024-01-30T11:53:08;9.30;;;6.60;;
82147;SDS011;71718;50.480;12.110;2024-01-30T11:55:35;7.10;;;5.00;;
82147;SDS011;71718;50.480;12.110;2024-01-30T11:58:01;8.25;;;4.78;;
82147;SDS011;71718;50.480;12.110;2024-01-30T12:00:29;10.50;;;7.80;;
82147;SDS011;71718;50.480;12.110;2024-01-30T12:02:56;11.68;;;5.63;;
82147;SDS011;71718;50.480;12.110;2024-01-30T12:05:23;6.63;;;4.50;;
82147;SDS011;71718;50.480;12.110;2024-01-30T12:07:50;5.25;;;4.32;;
82147;SDS011;71718;50.480;12.110;2024-01-30T12:10:17;9.45;;;5.85;;
82147;SDS011;71718;50.480;12.110;2024-01-30T12:12:48;8.02;;;6.32;;
82147;SDS011;71718;50.480;12.110;2024-01-30T12:15:16;12.07;;;5.60;;
82147;SDS011;71718;50.480;12.110;2024-01-30T12:17:43;7.53;;;5.50;;
82147;SDS011;71718;50.480;12.110;2024-01-30T12:20:10;6.40;;;4.68;;
82147;SDS011;71718;50.480;12.110;2024-01-30T12:25:09;7.30;;;4.25;;
82147;SDS011;71718;50.480;12.110;2024-01-30T12:27:41;6.35;;;5.65;;
82147;SDS011;71718;50.480;12.110;2024-01-30T12:30:12;7.90;;;5.10;;
82147;SDS011;71718;50.480;12.110;2024-01-30T12:32:43;6.90;;;5.15;;
82147;SDS011;71718;50.480;12.110;2024-01-30T12:35:11;11.50;;;5.35;;
82147;SDS011;71718;50.480;12.110;2024-01-30T12:37:38;6.35;;;4.93;;
82147;SDS011;71718;50.480;12.110;2024-01-30T12:40:06;8.52;;;5.43;;
82147;SDS011;71718;50.480;12.110;2024-01-30T12:42:33;9.02;;;4.55;;
82147;SDS011;71718;50.480;12.110;2024-01-30T12:45:00;8.25;;;5.55;;
82147;SDS011;71718;50.480;12.110;2024-01-30T12:47:27;5.07;;;4.57;;
82147;SDS011;71718;50.480;12.110;2024-01-30T12:49:54;9.93;;;5.50;;
82147;SDS011;71718;50.480;12.110;2024-01-30T12:52:21;7.05;;;4.75;;
82147;SDS011;71718;50.480;12.110;2024-01-30T12:54:48;8.35;;;5.40;;
82147;SDS011;71718;50.480;12.110;2024-01-30T12:57:15;7.43;;;5.85;;
82147;SDS011;71718;50.480;12.110;2024-01-30T12:59:43;9.40;;;4.63;;
82147;SDS011;71718;50.480;12.110;2024-01-30T13:02:10;8.02;;;4.38;;
82147;SDS011;71718;50.480;12.110;2024-01-30T13:04:38;6.20;;;5.60;;
82147;SDS011;71718;50.480;12.110;2024-01-30T13:07:05;9.88;;;4.85;;
82147;SDS011;71718;50.480;12.110;2024-01-30T13:09:31;9.02;;;4.10;;
82147;SDS011;71718;50.480;12.110;2024-01-30T13:11:58;8.95;;;5.82;;
82147;SDS011;71718;50.480;12.110;2024-01-30T13:14:25;6.18;;;5.47;;
82147;SDS011;71718;50.480;12.110;2024-01-30T13:16:52;6.30;;;4.60;;
82147;SDS011;71718;50.480;12.110;2024-01-30T13:19:18;6.15;;;5.47;;
82147;SDS011;71718;50.480;12.110;2024-01-30T13:21:45;4.90;;;4.43;;
82147;SDS011;71718;50.480;12.110;2024-01-30T13:24:11;7.38;;;5.05;;
82147;SDS011;71718;50.480;12.110;2024-01-30T13:26:38;11.63;;;6.47;;
82147;SDS011;71718;50.480;12.110;2024-01-30T13:29:04;10.25;;;7.15;;
82147;SDS011;71718;50.480;12.110;2024-01-30T13:31:31;8.82;;;5.75;;
82147;SDS011;71718;50.480;12.110;2024-01-30T13:33:57;14.27;;;8.40;;
82147;SDS011;71718;50.480;12.110;2024-01-30T13:36:24;8.27;;;5.88;;
82147;SDS011;71718;50.480;12.110;2024-01-30T13:38:50;12.07;;;6.40;;
82147;SDS011;71718;50.480;12.110;2024-01-30T13:41:16;8.90;;;6.70;;
82147;SDS011;71718;50.480;12.110;2024-01-30T13:43:43;16.23;;;5.82;;
82147;SDS011;71718;50.480;12.110;2024-01-30T13:46:10;8.25;;;5.70;;
82147;SDS011;71718;50.480;12.110;2024-01-30T13:48:36;7.70;;;5.88;;
82147;SDS011;71718;50.480;12.110;2024-01-30T13:51:03;13.20;;;6.50;;
82147;SDS011;71718;50.480;12.110;2024-01-30T13:53:30;9.90;;;5.93;;
82147;SDS011;71718;50.480;12.110;2024-01-30T13:55:56;15.38;;;5.63;;
82147;SDS011;71718;50.480;12.110;2024-01-30T13:58:22;17.67;;;8.52;;
82147;SDS011;71718;50.480;12.110;2024-01-30T14:00:49;11.82;;;8.88;;
82147;SDS011;71718;50.480;12.110;2024-01-30T14:03:16;10.07;;;7.00;;
82147;SDS011;71718;50.480;12.110;2024-01-30T14:05:42;16.90;;;9.00;;
82147;SDS011;71718;50.480;12.110;2024-01-30T14:08:08;9.05;;;6.32;;
82147;SDS011;71718;50.480;12.110;2024-01-30T14:10:35;13.23;;;7.60;;
82147;SDS011;71718;50.480;12.110;2024-01-30T14:13:01;10.00;;;5.88;;
82147;SDS011;71718;50.480;12.110;2024-01-30T14:15:28;7.93;;;5.22;;
82147;SDS011;71718;50.480;12.110;2024-01-30T14:17:55;13.52;;;5.78;;
82147;SDS011;71718;50.480;12.110;2024-01-30T14:20:22;6.65;;;5.07;;
82147;SDS011;71718;50.480;12.110;2024-01-30T14:22:49;8.20;;;4.88;;
82147;SDS011;71718;50.480;12.110;2024-01-30T14:25:15;6.88;;;5.93;;
82147;SDS011;71718;50.480;12.110;2024-01-30T14:27:42;8.27;;;5.20;;
82147;SDS011;71718;50.480;12.110;2024-01-30T14:30:11;8.88;;;5.25;;
82147;SDS011;71718;50.480;12.110;2024-01-30T14:32:38;6.30;;;5.25;;